Temp: 17.0°C   Baro: 1010.4mb
  Wind: 2.9mph   Dir: W (274°)
  Rain: 0.8mm (0.0mm/hr)
  Solar: 227W/m2  Hum: 91%
 
Bath Spa Weather Station Historical Data
Daily Summary for June 21, 2019 Units:  Both    English   Metric
Daily Weekly Monthly Yearly Custom
  High: Low: Average:
Temperature: 71.1 °F /  21.7 °C 54.3 °F /  12.4 °C 62.8 °F /  17.1 °C
Dew Point: 59.3 °F /  15.2 °C 51.2 °F /  10.7 °C 55.9 °F /  13.3 °C
Humidity: 92% 63.9% 79%
Wind Speed: 12mph /  19.3km/h - 3.7mph /  6km/h
Wind Gust: 19mph /  30.6km/h - -
Wind- - SW
Pressure: 30.15 in /  1020.9 hPa 30.02 in /  1016.5 hPa -
Precipitation: 0.00 in /  0 mm    
Historical Graphs
 
 
Tabular Data for June 21, 2019
Time Temperature Dew Point Pressure Wind Wind Speed Wind Gust Humidity Rainfall Rate (Hourly) solar
00:04 56.9 °F /  13.8 °C 52.4 °F /  11.3 °C 30.02in /  1016.5hPa West 0.6mph /  1km/h 3mph /  4.8km/h 85% 0.00in /  0mm 0 W/m2
00:09 56.8 °F /  13.8 °C 52.3 °F /  11.3 °C 30.02in /  1016.5hPa West 0.1mph /  0.2km/h 2mph /  3.2km/h 85% 0.00in /  0mm 0 W/m2
00:14 56.8 °F /  13.8 °C 52.3 °F /  11.3 °C 30.02in /  1016.5hPa West 0.1mph /  0.2km/h 1mph /  1.6km/h 85% 0.00in /  0mm 0 W/m2
00:19 56.7 °F /  13.7 °C 52.2 °F /  11.2 °C 30.02in /  1016.5hPa West 0.9mph /  1.4km/h 3mph /  4.8km/h 85% 0.00in /  0mm 0 W/m2
00:24 56.7 °F /  13.7 °C 52.5 °F /  11.4 °C 30.02in /  1016.5hPa West 2mph /  3.2km/h 4mph /  6.4km/h 86% 0.00in /  0mm 0 W/m2
00:29 56.7 °F /  13.7 °C 52.5 °F /  11.4 °C 30.02in /  1016.5hPa West 1.5mph /  2.4km/h 4mph /  6.4km/h 86% 0.00in /  0mm 0 W/m2
00:34 56.7 °F /  13.7 °C 52.5 °F /  11.4 °C 30.02in /  1016.5hPa WNW 3.3mph /  5.3km/h 7mph /  11.3km/h 86% 0.00in /  0mm 0 W/m2
00:39 56.7 °F /  13.7 °C 52.5 °F /  11.4 °C 30.03in /  1016.8hPa WNW 0.9mph /  1.4km/h 5mph /  8km/h 86.1% 0.00in /  0mm 0 W/m2
00:44 56.7 °F /  13.7 °C 52.9 °F /  11.6 °C 30.03in /  1016.8hPa WNW 1.4mph /  2.3km/h 4mph /  6.4km/h 87% 0.00in /  0mm 0 W/m2
00:49 56.5 °F /  13.6 °C 52.7 °F /  11.5 °C 30.03in /  1016.8hPa WNW 0.7mph /  1.1km/h 3mph /  4.8km/h 87% 0.00in /  0mm 0 W/m2
00:54 56.6 °F /  13.7 °C 52.8 °F /  11.6 °C 30.02in /  1016.5hPa WNW 0.6mph /  1km/h 3mph /  4.8km/h 87% 0.00in /  0mm 0 W/m2
00:59 56.6 °F /  13.7 °C 52.8 °F /  11.6 °C 30.03in /  1016.8hPa WNW 1.2mph /  1.9km/h 3mph /  4.8km/h 87% 0.00in /  0mm 0 W/m2
01:04 56.6 °F /  13.7 °C 52.8 °F /  11.6 °C 30.03in /  1016.8hPa WNW 0.6mph /  1km/h 3mph /  4.8km/h 87% 0.00in /  0mm 0 W/m2
01:09 56.4 °F /  13.6 °C 52.6 °F /  11.4 °C 30.03in /  1016.8hPa Calm   2mph /  3.2km/h 87% 0.00in /  0mm 0 W/m2
01:14 56.3 °F /  13.5 °C 52.5 °F /  11.4 °C 30.03in /  1016.8hPa Calm     87% 0.00in /  0mm 0 W/m2
01:19 56.2 °F /  13.4 °C 52.4 °F /  11.3 °C 30.03in /  1016.8hPa Calm     87% 0.00in /  0mm 0 W/m2
01:24 56.1 °F /  13.4 °C 52.3 °F /  11.3 °C 30.03in /  1016.8hPa Calm     87% 0.00in /  0mm 0 W/m2
01:29 55.9 °F /  13.3 °C 52.3 °F /  11.3 °C 30.03in /  1016.8hPa WNW 0.1mph /  0.2km/h 1mph /  1.6km/h 87.4% 0.00in /  0mm 0 W/m2
01:34 55.8 °F /  13.2 °C 52.2 °F /  11.2 °C 30.03in /  1016.8hPa WNW 0.6mph /  1km/h 2mph /  3.2km/h 87.4% 0.00in /  0mm 0 W/m2
01:39 55.8 °F /  13.2 °C 52.3 °F /  11.3 °C 30.04in /  1017.2hPa WNW 0.8mph /  1.3km/h 4mph /  6.4km/h 88% 0.00in /  0mm 0 W/m2
01:44 55.8 °F /  13.2 °C 52.3 °F /  11.3 °C 30.04in /  1017.2hPa WNW 0.1mph /  0.2km/h 2mph /  3.2km/h 88% 0.00in /  0mm 0 W/m2
01:49 55.6 °F /  13.1 °C 52.2 °F /  11.2 °C 30.03in /  1016.8hPa WNW 0.1mph /  0.2km/h 2mph /  3.2km/h 88% 0.00in /  0mm 0 W/m2
01:54 55.4 °F /  13 °C 52.1 °F /  11.2 °C 30.03in /  1016.8hPa Calm   1mph /  1.6km/h 88.2% 0.00in /  0mm 0 W/m2
01:59 55.3 °F /  12.9 °C 52 °F /  11.1 °C 30.04in /  1017.2hPa Calm     88.6% 0.00in /  0mm 0 W/m2
02:04 55.2 °F /  12.9 °C 52 °F /  11.1 °C 30.04in /  1017.2hPa Calm     89% 0.00in /  0mm 0 W/m2
02:09 55 °F /  12.8 °C 51.8 °F /  11 °C 30.04in /  1017.2hPa Calm     89% 0.00in /  0mm 0 W/m2
02:14 54.9 °F /  12.7 °C 51.6 °F /  10.9 °C 30.04in /  1017.2hPa Calm     89% 0.00in /  0mm 0 W/m2
02:19 54.8 °F /  12.7 °C 51.5 °F /  10.8 °C 30.04in /  1017.2hPa Calm     89% 0.00in /  0mm 0 W/m2
02:24 54.6 °F /  12.6 °C 51.4 °F /  10.8 °C 30.04in /  1017.2hPa Calm     89% 0.00in /  0mm 0 W/m2
02:29 54.5 °F /  12.5 °C 51.3 °F /  10.7 °C 30.04in /  1017.2hPa Calm     89% 0.00in /  0mm 0 W/m2
02:34 54.5 °F /  12.5 °C 51.3 °F /  10.7 °C 30.04in /  1017.2hPa Calm     89% 0.00in /  0mm 0 W/m2
02:39 54.4 °F /  12.4 °C 51.2 °F /  10.7 °C 30.04in /  1017.2hPa Calm     89% 0.00in /  0mm 0 W/m2
02:44 54.3 °F /  12.4 °C 51.3 °F /  10.7 °C 30.04in /  1017.2hPa Calm     89.6% 0.00in /  0mm 0 W/m2
02:49 54.3 °F /  12.4 °C 51.4 °F /  10.8 °C 30.04in /  1017.2hPa Calm     90% 0.00in /  0mm 0 W/m2
02:54 54.3 °F /  12.4 °C 51.4 °F /  10.8 °C 30.04in /  1017.2hPa Calm     90% 0.00in /  0mm 0 W/m2
02:59 54.3 °F /  12.4 °C 51.4 °F /  10.8 °C 30.04in /  1017.2hPa Calm     90% 0.00in /  0mm 0 W/m2
03:04 54.3 °F /  12.4 °C 51.4 °F /  10.8 °C 30.04in /  1017.2hPa Calm     90% 0.00in /  0mm 0 W/m2
03:09 54.4 °F /  12.4 °C 51.5 °F /  10.8 °C 30.04in /  1017.2hPa Calm     90% 0.00in /  0mm 0 W/m2
03:14 54.5 °F /  12.5 °C 51.6 °F /  10.9 °C 30.04in /  1017.2hPa Calm     90% 0.00in /  0mm 0 W/m2
03:19 54.5 °F /  12.5 °C 52 °F /  11.1 °C 30.05in /  1017.5hPa Calm     91% 0.00in /  0mm 0 W/m2
03:24 54.5 °F /  12.5 °C 52 °F /  11.1 °C 30.05in /  1017.5hPa Calm     91% 0.00in /  0mm 0 W/m2
03:29 54.6 °F /  12.6 °C 52.1 °F /  11.2 °C 30.05in /  1017.5hPa Calm     91% 0.00in /  0mm 0 W/m2
03:34 54.9 °F /  12.7 °C 52.3 °F /  11.3 °C 30.05in /  1017.5hPa Calm     91% 0.00in /  0mm 0 W/m2
03:39 55 °F /  12.8 °C 52.5 °F /  11.4 °C 30.05in /  1017.5hPa WNW 0.4mph /  0.6km/h 3mph /  4.8km/h 91% 0.00in /  0mm 0 W/m2
03:44 55 °F /  12.8 °C 52.5 °F /  11.4 °C 30.05in /  1017.5hPa Calm   3mph /  4.8km/h 91% 0.00in /  0mm 0 W/m2
03:49 55.2 °F /  12.9 °C 52.7 °F /  11.5 °C 30.04in /  1017.2hPa WNW 0.1mph /  0.2km/h 1mph /  1.6km/h 91% 0.00in /  0mm 0 W/m2
03:54 55.2 °F /  12.9 °C 52.7 °F /  11.5 °C 30.05in /  1017.5hPa Calm     91% 0.00in /  0mm 0 W/m2
03:59 55.1 °F /  12.8 °C 52.6 °F /  11.4 °C 30.05in /  1017.5hPa Calm   1mph /  1.6km/h 91% 0.00in /  0mm 0 W/m2
04:04 55.2 °F /  12.9 °C 52.7 °F /  11.5 °C 30.05in /  1017.5hPa Calm     91% 0.00in /  0mm 0 W/m2
04:09 55.2 °F /  12.9 °C 52.7 °F /  11.5 °C 30.05in /  1017.5hPa Calm     91% 0.00in /  0mm 0 W/m2
04:14 55.2 °F /  12.9 °C 52.7 °F /  11.5 °C 30.05in /  1017.5hPa Calm     91% 0.00in /  0mm 0 W/m2
04:19 55.4 °F /  13 °C 52.9 °F /  11.6 °C 30.05in /  1017.5hPa Calm     91% 0.00in /  0mm 0 W/m2
04:24 55.4 °F /  13 °C 52.9 °F /  11.6 °C 30.05in /  1017.5hPa Calm     91% 0.00in /  0mm 0 W/m2
04:29 55.5 °F /  13.1 °C 53.1 °F /  11.7 °C 30.05in /  1017.5hPa Calm     91.4% 0.00in /  0mm 0 W/m2
04:34 55.7 °F /  13.2 °C 53.3 °F /  11.8 °C 30.05in /  1017.5hPa Calm     92% 0.00in /  0mm 0 W/m2
04:39 55.8 °F /  13.2 °C 53.4 °F /  11.9 °C 30.06in /  1017.8hPa Calm     92% 0.00in /  0mm 0 W/m2
04:44 55.8 °F /  13.2 °C 53.5 °F /  11.9 °C 30.06in /  1017.8hPa Calm     92% 0.00in /  0mm 0 W/m2
04:49 55.9 °F /  13.3 °C 53.6 °F /  12 °C 30.06in /  1017.8hPa Calm     92% 0.00in /  0mm 0 W/m2
04:54 55.9 °F /  13.3 °C 53.6 °F /  12 °C 30.06in /  1017.8hPa Calm     92% 0.00in /  0mm 0 W/m2
04:59 55.9 °F /  13.3 °C 53.5 °F /  11.9 °C 30.06in /  1017.8hPa Calm     91.4% 0.00in /  0mm 0 W/m2
05:04 55.9 °F /  13.3 °C 53.4 °F /  11.9 °C 30.06in /  1017.8hPa Calm     91.1% 0.00in /  0mm 0 W/m2
05:09 56 °F /  13.3 °C 53.5 °F /  11.9 °C 30.06in /  1017.8hPa Calm     91% 0.00in /  0mm 0 W/m2
05:14 56 °F /  13.3 °C 53.5 °F /  11.9 °C 30.06in /  1017.8hPa Calm     91% 0.00in /  0mm 0 W/m2
05:19 56 °F /  13.3 °C 53.5 °F /  11.9 °C 30.06in /  1017.8hPa Calm     91% 0.00in /  0mm 0 W/m2
05:24 56.1 °F /  13.4 °C 53.6 °F /  12 °C 30.06in /  1017.8hPa Calm     91% 0.00in /  0mm 5 W/m2
05:29 56.1 °F /  13.4 °C 53.6 °F /  12 °C 30.07in /  1018.2hPa WNW 0.2mph /  0.3km/h 2mph /  3.2km/h 91% 0.00in /  0mm 7 W/m2
05:34 56 °F /  13.3 °C 53.5 °F /  11.9 °C 30.07in /  1018.2hPa WNW 0.1mph /  0.2km/h 2mph /  3.2km/h 91% 0.00in /  0mm 11 W/m2
05:39 55.9 °F /  13.3 °C 53.4 °F /  11.9 °C 30.07in /  1018.2hPa WNW 0.7mph /  1.1km/h 4mph /  6.4km/h 91% 0.00in /  0mm 12 W/m2
05:44 56 °F /  13.3 °C 53.5 °F /  11.9 °C 30.07in /  1018.2hPa WNW 0.9mph /  1.4km/h 4mph /  6.4km/h 91% 0.00in /  0mm 14 W/m2
05:49 56.1 °F /  13.4 °C 53.6 °F /  12 °C 30.07in /  1018.2hPa Calm   1mph /  1.6km/h 91% 0.00in /  0mm 19 W/m2
05:54 56.1 °F /  13.4 °C 53.6 °F /  12 °C 30.08in /  1018.5hPa Calm   1mph /  1.6km/h 91% 0.00in /  0mm 21 W/m2
05:59 56.1 °F /  13.4 °C 53.6 °F /  12 °C 30.08in /  1018.5hPa WNW 0.3mph /  0.5km/h 2mph /  3.2km/h 91% 0.00in /  0mm 23 W/m2
06:04 56.1 °F /  13.4 °C 53.6 °F /  12 °C 30.08in /  1018.5hPa Calm   2mph /  3.2km/h 91% 0.00in /  0mm 30 W/m2
06:09 56.1 °F /  13.4 °C 53.4 °F /  11.9 °C 30.08in /  1018.5hPa Calm     90.5% 0.00in /  0mm 37 W/m2
06:14 56.3 °F /  13.5 °C 53.4 °F /  11.9 °C 30.09in /  1018.8hPa Calm     90% 0.00in /  0mm 40 W/m2
06:19 56.3 °F /  13.5 °C 53.4 °F /  11.9 °C 30.09in /  1018.8hPa Calm     90% 0.00in /  0mm 42 W/m2
06:24 56.6 °F /  13.7 °C 53.7 °F /  12.1 °C 30.09in /  1018.8hPa WNW 0.1mph /  0.2km/h 1mph /  1.6km/h 90% 0.00in /  0mm 49 W/m2
06:29 56.7 °F /  13.7 °C 53.8 °F /  12.1 °C 30.09in /  1018.8hPa WNW 0.3mph /  0.5km/h 2mph /  3.2km/h 90% 0.00in /  0mm 53 W/m2
06:34 56.8 °F /  13.8 °C 54 °F /  12.2 °C 30.09in /  1018.8hPa WNW 0.1mph /  0.2km/h 2mph /  3.2km/h 90% 0.00in /  0mm 62 W/m2
06:39 57 °F /  13.9 °C 54.1 °F /  12.3 °C 30.09in /  1018.8hPa Calm   1mph /  1.6km/h 90% 0.00in /  0mm 60 W/m2
06:44 57.1 °F /  13.9 °C 54.2 °F /  12.3 °C 30.09in /  1018.8hPa Calm   1mph /  1.6km/h 90% 0.00in /  0mm 54 W/m2
06:49 57.2 °F /  14 °C 54.3 °F /  12.4 °C 30.09in /  1018.8hPa WNW 1.1mph /  1.8km/h 3mph /  4.8km/h 90% 0.00in /  0mm 47 W/m2
06:54 57.3 °F /  14.1 °C 54.3 °F /  12.4 °C 30.09in /  1018.8hPa WNW 1mph /  1.6km/h 4mph /  6.4km/h 89.7% 0.00in /  0mm 54 W/m2
06:59 57.6 °F /  14.2 °C 54.3 °F /  12.4 °C 30.09in /  1018.8hPa WNW 0.7mph /  1.1km/h 3mph /  4.8km/h 89% 0.00in /  0mm 62 W/m2
07:04 57.7 °F /  14.3 °C 54.5 °F /  12.5 °C 30.10in /  1019.2hPa WNW 0.6mph /  1km/h 3mph /  4.8km/h 89% 0.00in /  0mm 70 W/m2
07:09 57.7 °F /  14.3 °C 54.5 °F /  12.5 °C 30.09in /  1018.8hPa WNW 0.3mph /  0.5km/h 3mph /  4.8km/h 89% 0.00in /  0mm 79 W/m2
07:14 57.7 °F /  14.3 °C 54.5 °F /  12.5 °C 30.10in /  1019.2hPa WNW 1.5mph /  2.4km/h 4mph /  6.4km/h 89% 0.00in /  0mm 81 W/m2
07:19 57.9 °F /  14.4 °C 54.7 °F /  12.6 °C 30.10in /  1019.2hPa WNW 0.3mph /  0.5km/h 3mph /  4.8km/h 89% 0.00in /  0mm 95 W/m2
07:24 58 °F /  14.4 °C 54.6 °F /  12.6 °C 30.10in /  1019.2hPa West 2.5mph /  4km/h 5mph /  8km/h 88.6% 0.00in /  0mm 120 W/m2
07:29 58.1 °F /  14.5 °C 54.5 °F /  12.5 °C 30.10in /  1019.2hPa West 0.6mph /  1km/h 3mph /  4.8km/h 88% 0.00in /  0mm 167 W/m2
07:34 58.5 °F /  14.7 °C 54.9 °F /  12.7 °C 30.09in /  1018.8hPa West 0.8mph /  1.3km/h 5mph /  8km/h 88% 0.00in /  0mm 167 W/m2
07:39 58.6 °F /  14.8 °C 55 °F /  12.8 °C 30.09in /  1018.8hPa West 0.3mph /  0.5km/h 3mph /  4.8km/h 88% 0.00in /  0mm 171 W/m2
07:44 58.7 °F /  14.8 °C 55.1 °F /  12.8 °C 30.09in /  1018.8hPa West 0.6mph /  1km/h 5mph /  8km/h 88% 0.00in /  0mm 193 W/m2
07:49 59 °F /  15 °C 55.4 °F /  13 °C 30.09in /  1018.8hPa West 2.1mph /  3.4km/h 5mph /  8km/h 88% 0.00in /  0mm 211 W/m2
07:54 59.3 °F /  15.2 °C 55.6 °F /  13.1 °C 30.10in /  1019.2hPa WSW 3.5mph /  5.6km/h 8mph /  12.9km/h 87.8% 0.00in /  0mm 243 W/m2
07:59 59.5 °F /  15.3 °C 55.6 °F /  13.1 °C 30.10in /  1019.2hPa WSW 4.8mph /  7.7km/h 8mph /  12.9km/h 87% 0.00in /  0mm 262 W/m2
08:04 60 °F /  15.6 °C 56 °F /  13.3 °C 30.10in /  1019.2hPa WSW 3.4mph /  5.5km/h 7mph /  11.3km/h 86.8% 0.00in /  0mm 281 W/m2
08:09 60.4 °F /  15.8 °C 56.3 °F /  13.5 °C 30.10in /  1019.2hPa WSW 3.5mph /  5.6km/h 7mph /  11.3km/h 86% 0.00in /  0mm 308 W/m2
08:14 60.5 °F /  15.8 °C 56 °F /  13.3 °C 30.11in /  1019.5hPa SW 3.6mph /  5.8km/h 7mph /  11.3km/h 84.8% 0.00in /  0mm 338 W/m2
08:19 60.6 °F /  15.9 °C 55.7 °F /  13.2 °C 30.11in /  1019.5hPa SSW 1.7mph /  2.7km/h 7mph /  11.3km/h 84% 0.00in /  0mm 387 W/m2
08:24 61.1 °F /  16.2 °C 56.2 °F /  13.4 °C 30.11in /  1019.5hPa SW 2mph /  3.2km/h 7mph /  11.3km/h 84% 0.00in /  0mm 399 W/m2
08:29 61.6 °F /  16.4 °C 56.4 °F /  13.6 °C 30.11in /  1019.5hPa SW 0.8mph /  1.3km/h 6mph /  9.7km/h 83% 0.00in /  0mm 250 W/m2
08:34 62 °F /  16.7 °C 56.6 °F /  13.7 °C 30.11in /  1019.5hPa SW 1.3mph /  2.1km/h 6mph /  9.7km/h 82.5% 0.00in /  0mm 334 W/m2
08:39 62.2 °F /  16.8 °C 56.3 °F /  13.5 °C 30.11in /  1019.5hPa SW 2.4mph /  3.9km/h 7mph /  11.3km/h 81.2% 0.00in /  0mm 322 W/m2
08:44 62.5 °F /  16.9 °C 56.3 °F /  13.5 °C 30.11in /  1019.5hPa SW 2.7mph /  4.3km/h 6mph /  9.7km/h 80.3% 0.00in /  0mm 527 W/m2
08:49 62.8 °F /  17.1 °C 56.5 °F /  13.6 °C 30.11in /  1019.5hPa WSW 4mph /  6.4km/h 9mph /  14.5km/h 80% 0.00in /  0mm 475 W/m2
08:54 63 °F /  17.2 °C 56.5 °F /  13.6 °C 30.11in /  1019.5hPa SW 3.9mph /  6.3km/h 8mph /  12.9km/h 79.3% 0.00in /  0mm 332 W/m2
08:59 63.1 °F /  17.3 °C 56.4 °F /  13.6 °C 30.11in /  1019.5hPa SW 5.7mph /  9.2km/h 10mph /  16.1km/h 78.9% 0.00in /  0mm 313 W/m2
09:04 62.9 °F /  17.2 °C 56.2 °F /  13.4 °C 30.11in /  1019.5hPa WSW 5.9mph /  9.5km/h 13mph /  20.9km/h 79% 0.00in /  0mm 302 W/m2
09:09 63 °F /  17.2 °C 56.1 °F /  13.4 °C 30.11in /  1019.5hPa WSW 6.2mph /  10km/h 13mph /  20.9km/h 78.6% 0.00in /  0mm 346 W/m2
09:14 63 °F /  17.2 °C 55.9 °F /  13.3 °C 30.11in /  1019.5hPa SW 5.8mph /  9.3km/h 10mph /  16.1km/h 78% 0.00in /  0mm 418 W/m2
09:19 63.1 °F /  17.3 °C 56.1 °F /  13.4 °C 30.11in /  1019.5hPa WSW 4.9mph /  7.9km/h 9mph /  14.5km/h 78% 0.00in /  0mm 295 W/m2
09:24 63.6 °F /  17.6 °C 56.5 °F /  13.6 °C 30.11in /  1019.5hPa WSW 4.8mph /  7.7km/h 9mph /  14.5km/h 77.7% 0.00in /  0mm 281 W/m2
09:29 63.4 °F /  17.4 °C 56.1 °F /  13.4 °C 30.11in /  1019.5hPa SW 3.9mph /  6.3km/h 9mph /  14.5km/h 77.1% 0.00in /  0mm 580 W/m2
09:34 64.3 °F /  17.9 °C 56.9 °F /  13.8 °C 30.11in /  1019.5hPa WSW 3mph /  4.8km/h 8mph /  12.9km/h 77.2% 0.00in /  0mm 575 W/m2
09:39 64.8 °F /  18.2 °C 56.3 °F /  13.5 °C 30.12in /  1019.9hPa WSW 3.9mph /  6.3km/h 8mph /  12.9km/h 74% 0.00in /  0mm 575 W/m2
09:44 64.8 °F /  18.2 °C 56.2 °F /  13.4 °C 30.12in /  1019.9hPa SW 4.4mph /  7.1km/h 10mph /  16.1km/h 73.5% 0.00in /  0mm 434 W/m2
09:49 64.8 °F /  18.2 °C 55.9 °F /  13.3 °C 30.12in /  1019.9hPa SW 5.4mph /  8.7km/h 10mph /  16.1km/h 73% 0.00in /  0mm 427 W/m2
09:54 64.5 °F /  18.1 °C 55.7 °F /  13.2 °C 30.12in /  1019.9hPa SW 6.9mph /  11.1km/h 11mph /  17.7km/h 73% 0.00in /  0mm 353 W/m2
09:59 64.5 °F /  18.1 °C 55.9 °F /  13.3 °C 30.12in /  1019.9hPa WSW 4mph /  6.4km/h 9mph /  14.5km/h 73.5% 0.00in /  0mm 346 W/m2
10:04 64.9 °F /  18.3 °C 56 °F /  13.3 °C 30.12in /  1019.9hPa WSW 6mph /  9.7km/h 10mph /  16.1km/h 72.9% 0.00in /  0mm 411 W/m2
10:09 65.2 °F /  18.4 °C 55.6 °F /  13.1 °C 30.12in /  1019.9hPa West 7.9mph /  12.7km/h 11mph /  17.7km/h 71.1% 0.00in /  0mm 404 W/m2
10:14 65.3 °F /  18.5 °C 55.2 °F /  12.9 °C 30.12in /  1019.9hPa WSW 4.7mph /  7.6km/h 11mph /  17.7km/h 70% 0.00in /  0mm 432 W/m2
10:19 65.6 °F /  18.7 °C 55.9 °F /  13.3 °C 30.12in /  1019.9hPa WSW 4.2mph /  6.8km/h 9mph /  14.5km/h 71.1% 0.00in /  0mm 438 W/m2
10:24 65.8 °F /  18.8 °C 56.1 °F /  13.4 °C 30.12in /  1019.9hPa SSW 5.2mph /  8.4km/h 9mph /  14.5km/h 71% 0.00in /  0mm 388 W/m2
10:29 65.7 °F /  18.7 °C 55.8 °F /  13.2 °C 30.12in /  1019.9hPa SW 4.3mph /  6.9km/h 9mph /  14.5km/h 70.6% 0.00in /  0mm 434 W/m2
10:34 65.4 °F /  18.6 °C 55.5 °F /  13.1 °C 30.12in /  1019.9hPa WSW 4.9mph /  7.9km/h 9mph /  14.5km/h 70.7% 0.00in /  0mm 420 W/m2
10:39 65.6 °F /  18.7 °C 55.2 °F /  12.9 °C 30.12in /  1019.9hPa SW 5.9mph /  9.5km/h 11mph /  17.7km/h 69.1% 0.00in /  0mm 424 W/m2
10:44 65.4 °F /  18.6 °C 54.9 °F /  12.7 °C 30.13in /  1020.2hPa SW 6.6mph /  10.6km/h 11mph /  17.7km/h 69% 0.00in /  0mm 462 W/m2
10:49 65.6 °F /  18.7 °C 55.2 °F /  12.9 °C 30.13in /  1020.2hPa WSW 4.8mph /  7.7km/h 10mph /  16.1km/h 69% 0.00in /  0mm 526 W/m2
10:54 65.9 °F /  18.8 °C 54.9 °F /  12.7 °C 30.13in /  1020.2hPa SW 6.8mph /  10.9km/h 12mph /  19.3km/h 67.6% 0.00in /  0mm 575 W/m2
10:59 65.7 °F /  18.7 °C 54.7 °F /  12.6 °C 30.13in /  1020.2hPa SW 5.4mph /  8.7km/h 12mph /  19.3km/h 67.6% 0.00in /  0mm 536 W/m2
11:04 65.8 °F /  18.8 °C 55.2 °F /  12.9 °C 30.13in /  1020.2hPa SW 5.1mph /  8.2km/h 11mph /  17.7km/h 68.6% 0.00in /  0mm 536 W/m2
11:09 65.9 °F /  18.8 °C 55.2 °F /  12.9 °C 30.14in /  1020.5hPa WSW 6.4mph /  10.3km/h 12mph /  19.3km/h 68.3% 0.00in /  0mm 512 W/m2
11:14 66.2 °F /  19 °C 54.7 °F /  12.6 °C 30.14in /  1020.5hPa WSW 5.8mph /  9.3km/h 12mph /  19.3km/h 66.6% 0.00in /  0mm 568 W/m2
11:19 66.9 °F /  19.4 °C 55.4 °F /  13 °C 30.14in /  1020.5hPa SSW 3.5mph /  5.6km/h 9mph /  14.5km/h 66.5% 0.00in /  0mm 559 W/m2
11:24 66.8 °F /  19.3 °C 54.9 °F /  12.7 °C 30.14in /  1020.5hPa SW 4.5mph /  7.2km/h 12mph /  19.3km/h 65.4% 0.00in /  0mm 417 W/m2
11:29 66.5 °F /  19.2 °C 54.9 °F /  12.7 °C 30.14in /  1020.5hPa SW 4.3mph /  6.9km/h 10mph /  16.1km/h 66.2% 0.00in /  0mm 341 W/m2
11:34 66.6 °F /  19.2 °C 55.2 °F /  12.9 °C 30.14in /  1020.5hPa SSW 5.4mph /  8.7km/h 12mph /  19.3km/h 67% 0.00in /  0mm 311 W/m2
11:39 66.6 °F /  19.2 °C 55.4 °F /  13 °C 30.15in /  1020.9hPa SW 3.3mph /  5.3km/h 12mph /  19.3km/h 67.4% 0.00in /  0mm 325 W/m2
11:44 66.6 °F /  19.2 °C 55.6 °F /  13.1 °C 30.15in /  1020.9hPa WSW 4.8mph /  7.7km/h 9mph /  14.5km/h 67.9% 0.00in /  0mm 271 W/m2
11:49 66.3 °F /  19.1 °C 55.7 °F /  13.2 °C 30.15in /  1020.9hPa WSW 6.1mph /  9.8km/h 10mph /  16.1km/h 68.7% 0.00in /  0mm 301 W/m2
11:54 66.4 °F /  19.1 °C 55.8 °F /  13.2 °C 30.14in /  1020.5hPa SW 4.8mph /  7.7km/h 9mph /  14.5km/h 68.6% 0.00in /  0mm 353 W/m2
11:59 66.6 °F /  19.2 °C 55.3 °F /  12.9 °C 30.14in /  1020.5hPa SSW 5.8mph /  9.3km/h 11mph /  17.7km/h 67.2% 0.00in /  0mm 367 W/m2
12:04 66.7 °F /  19.3 °C 55.5 °F /  13.1 °C 30.14in /  1020.5hPa SSW 6.9mph /  11.1km/h 13mph /  20.9km/h 67.3% 0.00in /  0mm 540 W/m2
12:09 66.6 °F /  19.2 °C 55.3 °F /  12.9 °C 30.14in /  1020.5hPa SSW 6.7mph /  10.8km/h 18mph /  29km/h 67.2% 0.00in /  0mm 345 W/m2
12:14 66.5 °F /  19.2 °C 56.7 °F /  13.7 °C 30.14in /  1020.5hPa SSW 7mph /  11.3km/h 18mph /  29km/h 70.8% 0.00in /  0mm 325 W/m2
12:19 65.2 °F /  18.4 °C 56.9 °F /  13.8 °C 30.14in /  1020.5hPa South 7.8mph /  12.6km/h 15mph /  24.1km/h 74.3% 0.00in /  0mm 271 W/m2
12:24 64.5 °F /  18.1 °C 56.8 °F /  13.8 °C 30.14in /  1020.5hPa SSW 6mph /  9.7km/h 13mph /  20.9km/h 76.1% 0.00in /  0mm 246 W/m2
12:29 64.1 °F /  17.8 °C 57 °F /  13.9 °C 30.14in /  1020.5hPa South 5.8mph /  9.3km/h 13mph /  20.9km/h 77.6% 0.00in /  0mm 260 W/m2
12:34 64 °F /  17.8 °C 57.1 °F /  13.9 °C 30.14in /  1020.5hPa SSW 4.5mph /  7.2km/h 10mph /  16.1km/h 78.1% 0.00in /  0mm 346 W/m2
12:39 64.3 °F /  17.9 °C 57.6 °F /  14.2 °C 30.14in /  1020.5hPa SSW 4.7mph /  7.6km/h 11mph /  17.7km/h 78.8% 0.00in /  0mm 487 W/m2
12:44 65.2 °F /  18.4 °C 58.1 °F /  14.5 °C 30.14in /  1020.5hPa SSW 5.2mph /  8.4km/h 12mph /  19.3km/h 77.6% 0.00in /  0mm 445 W/m2
12:49 66 °F /  18.9 °C 58.3 °F /  14.6 °C 30.14in /  1020.5hPa SW 4.9mph /  7.9km/h 11mph /  17.7km/h 76% 0.00in /  0mm 504 W/m2
12:54 66.2 °F /  19 °C 57.9 °F /  14.4 °C 30.14in /  1020.5hPa SSW 5.2mph /  8.4km/h 10mph /  16.1km/h 74.3% 0.00in /  0mm 466 W/m2
12:59 66.8 °F /  19.3 °C 57.7 °F /  14.3 °C 30.14in /  1020.5hPa SW 5.7mph /  9.2km/h 13mph /  20.9km/h 72.7% 0.00in /  0mm 446 W/m2
13:04 67 °F /  19.4 °C 57.4 °F /  14.1 °C 30.14in /  1020.5hPa SSW 5.7mph /  9.2km/h 11mph /  17.7km/h 71.1% 0.00in /  0mm 378 W/m2
13:09 67 °F /  19.4 °C 57.6 °F /  14.2 °C 30.14in /  1020.5hPa SW 6.6mph /  10.6km/h 14mph /  22.5km/h 72% 0.00in /  0mm 524 W/m2
13:14 67.3 °F /  19.6 °C 57.8 °F /  14.3 °C 30.14in /  1020.5hPa WSW 7.3mph /  11.7km/h 14mph /  22.5km/h 71.8% 0.00in /  0mm 512 W/m2
13:19 67.8 °F /  19.9 °C 57.9 °F /  14.4 °C 30.14in /  1020.5hPa SW 5mph /  8km/h 12mph /  19.3km/h 70.4% 0.00in /  0mm 954 W/m2
13:24 68 °F /  20 °C 57.5 °F /  14.2 °C 30.14in /  1020.5hPa WSW 6.8mph /  10.9km/h 11mph /  17.7km/h 69.2% 0.00in /  0mm 995 W/m2
13:29 68.4 °F /  20.2 °C 58.3 °F /  14.6 °C 30.14in /  1020.5hPa SSW 4.4mph /  7.1km/h 10mph /  16.1km/h 70% 0.00in /  0mm 464 W/m2
13:34 68.4 °F /  20.2 °C 57.7 °F /  14.3 °C 30.14in /  1020.5hPa SW 5.4mph /  8.7km/h 11mph /  17.7km/h 69% 0.00in /  0mm 276 W/m2
13:39 68.2 °F /  20.1 °C 57.8 °F /  14.3 °C 30.14in /  1020.5hPa WSW 7.7mph /  12.4km/h 13mph /  20.9km/h 69.4% 0.00in /  0mm 318 W/m2
13:44 67.8 °F /  19.9 °C 57.5 °F /  14.2 °C 30.14in /  1020.5hPa WSW 7.2mph /  11.6km/h 13mph /  20.9km/h 69.6% 0.00in /  0mm 364 W/m2
13:49 68.1 °F /  20.1 °C 58.3 °F /  14.6 °C 30.14in /  1020.5hPa SW 5.3mph /  8.5km/h 11mph /  17.7km/h 70.7% 0.00in /  0mm 471 W/m2
13:54 68.4 °F /  20.2 °C 58.6 °F /  14.8 °C 30.14in /  1020.5hPa SSW 5.3mph /  8.5km/h 11mph /  17.7km/h 71% 0.00in /  0mm 471 W/m2
13:59 68.1 °F /  20.1 °C 58.2 °F /  14.6 °C 30.14in /  1020.5hPa South 9.1mph /  14.6km/h 17mph /  27.4km/h 70.6% 0.00in /  0mm 348 W/m2
14:04 67.9 °F /  19.9 °C 58.2 °F /  14.6 °C 30.14in /  1020.5hPa SW 7.7mph /  12.4km/h 14mph /  22.5km/h 71% 0.00in /  0mm 431 W/m2
14:09 67.7 °F /  19.8 °C 58 °F /  14.4 °C 30.14in /  1020.5hPa SW 8mph /  12.9km/h 12mph /  19.3km/h 71% 0.00in /  0mm 504 W/m2
14:14 68 °F /  20 °C 58.4 °F /  14.7 °C 30.14in /  1020.5hPa SW 6.1mph /  9.8km/h 12mph /  19.3km/h 71.2% 0.00in /  0mm 462 W/m2
14:19 68.2 °F /  20.1 °C 58.4 °F /  14.7 °C 30.14in /  1020.5hPa SSW 7.7mph /  12.4km/h 15mph /  24.1km/h 70.7% 0.00in /  0mm 520 W/m2
14:24 68.6 °F /  20.3 °C 58.6 °F /  14.8 °C 30.14in /  1020.5hPa SW 6mph /  9.7km/h 10mph /  16.1km/h 70.5% 0.00in /  0mm 686 W/m2
14:29 69.1 °F /  20.6 °C 58.7 °F /  14.8 °C 30.14in /  1020.5hPa SSW 4.9mph /  7.9km/h 10mph /  16.1km/h 69.7% 0.00in /  0mm 577 W/m2
14:34 69.1 °F /  20.6 °C 58.4 °F /  14.7 °C 30.13in /  1020.2hPa SW 5.4mph /  8.7km/h 10mph /  16.1km/h 68.8% 0.00in /  0mm 496 W/m2
14:39 69.3 °F /  20.7 °C 58.5 °F /  14.7 °C 30.13in /  1020.2hPa SSW 5.1mph /  8.2km/h 10mph /  16.1km/h 68.5% 0.00in /  0mm 320 W/m2
14:44 68.9 °F /  20.5 °C 57.9 °F /  14.4 °C 30.13in /  1020.2hPa SSW 6.2mph /  10km/h 12mph /  19.3km/h 68% 0.00in /  0mm 207 W/m2
14:49 68.9 °F /  20.5 °C 57.6 °F /  14.2 °C 30.14in /  1020.5hPa SW 9.1mph /  14.6km/h 14mph /  22.5km/h 67.1% 0.00in /  0mm 107 W/m2
14:54 68.7 °F /  20.4 °C 57.4 °F /  14.1 °C 30.14in /  1020.5hPa WSW 8mph /  12.9km/h 14mph /  22.5km/h 67% 0.00in /  0mm 86 W/m2
14:59 68.5 °F /  20.3 °C 57.6 °F /  14.2 °C 30.14in /  1020.5hPa SSW 7.2mph /  11.6km/h 14mph /  22.5km/h 67.9% 0.00in /  0mm 58 W/m2
15:04 68.4 °F /  20.2 °C 57.5 °F /  14.2 °C 30.14in /  1020.5hPa SW 5.6mph /  9km/h 14mph /  22.5km/h 68.2% 0.00in /  0mm 53 W/m2
15:09 68 °F /  20 °C 57.5 °F /  14.2 °C 30.14in /  1020.5hPa WSW 5.7mph /  9.2km/h 12mph /  19.3km/h 69.1% 0.00in /  0mm 76 W/m2
15:14 67.8 °F /  19.9 °C 57.7 °F /  14.3 °C 30.14in /  1020.5hPa SW 5.4mph /  8.7km/h 11mph /  17.7km/h 69.9% 0.00in /  0mm 109 W/m2
15:19 67.8 °F /  19.9 °C 57.2 °F /  14 °C 30.14in /  1020.5hPa WSW 6.1mph /  9.8km/h 14mph /  22.5km/h 69% 0.00in /  0mm 192 W/m2
15:24 67.9 °F /  19.9 °C 57.5 °F /  14.2 °C 30.14in /  1020.5hPa WSW 3.5mph /  5.6km/h 9mph /  14.5km/h 69.3% 0.00in /  0mm 308 W/m2
15:29 68.5 °F /  20.3 °C 58 °F /  14.4 °C 30.14in /  1020.5hPa SW 3.1mph /  5km/h 7mph /  11.3km/h 69.3% 0.00in /  0mm 513 W/m2
15:34 69.2 °F /  20.7 °C 58.3 °F /  14.6 °C 30.13in /  1020.2hPa SW 4.5mph /  7.2km/h 9mph /  14.5km/h 68.1% 0.00in /  0mm 621 W/m2
15:39 69.6 °F /  20.9 °C 58.2 °F /  14.6 °C 30.13in /  1020.2hPa SSW 6.6mph /  10.6km/h 11mph /  17.7km/h 67.1% 0.00in /  0mm 621 W/m2
15:44 69.6 °F /  20.9 °C 57.9 °F /  14.4 °C 30.13in /  1020.2hPa SSW 5.4mph /  8.7km/h 11mph /  17.7km/h 66.7% 0.00in /  0mm 297 W/m2
15:49 69.7 °F /  20.9 °C 57.8 °F /  14.3 °C 30.13in /  1020.2hPa SSW 6.3mph /  10.1km/h 14mph /  22.5km/h 66% 0.00in /  0mm 181 W/m2
15:54 69 °F /  20.6 °C 57.1 °F /  13.9 °C 30.13in /  1020.2hPa SSW 8.3mph /  13.4km/h 17mph /  27.4km/h 66% 0.00in /  0mm 195 W/m2
15:59 68.9 °F /  20.5 °C 56.9 °F /  13.8 °C 30.13in /  1020.2hPa SSW 6.7mph /  10.8km/h 16mph /  25.7km/h 65.8% 0.00in /  0mm 195 W/m2
16:04 69 °F /  20.6 °C 56.8 °F /  13.8 °C 30.13in /  1020.2hPa SW 5.2mph /  8.4km/h 12mph /  19.3km/h 65.4% 0.00in /  0mm 199 W/m2
16:09 68.8 °F /  20.4 °C 56.6 °F /  13.7 °C 30.13in /  1020.2hPa SW 8.3mph /  13.4km/h 13mph /  20.9km/h 65% 0.00in /  0mm 216 W/m2
16:14 68.9 °F /  20.5 °C 56.6 °F /  13.7 °C 30.13in /  1020.2hPa SSW 7.9mph /  12.7km/h 16mph /  25.7km/h 65% 0.00in /  0mm 485 W/m2
16:19 69.4 °F /  20.8 °C 56.6 °F /  13.7 °C 30.13in /  1020.2hPa SSW 6.5mph /  10.5km/h 14mph /  22.5km/h 63.9% 0.00in /  0mm 751 W/m2
16:24 70.1 °F /  21.2 °C 57.9 °F /  14.4 °C 30.13in /  1020.2hPa SW 8.5mph /  13.7km/h 15mph /  24.1km/h 65.4% 0.00in /  0mm 693 W/m2
16:29 70.3 °F /  21.3 °C 59.1 °F /  15.1 °C 30.13in /  1020.2hPa SSW 6.4mph /  10.3km/h 15mph /  24.1km/h 67.6% 0.00in /  0mm 633 W/m2
16:34 70.4 °F /  21.3 °C 59.3 °F /  15.2 °C 30.13in /  1020.2hPa SSW 8mph /  12.9km/h 14mph /  22.5km/h 67.7% 0.00in /  0mm 633 W/m2
16:39 70.3 °F /  21.3 °C 59.2 °F /  15.1 °C 30.13in /  1020.2hPa SSW 6.4mph /  10.3km/h 14mph /  22.5km/h 67.6% 0.00in /  0mm 339 W/m2
16:44 70.1 °F /  21.2 °C 58.9 °F /  14.9 °C 30.13in /  1020.2hPa SSW 6.8mph /  10.9km/h 13mph /  20.9km/h 67.5% 0.00in /  0mm 274 W/m2
16:49 69.9 °F /  21.1 °C 58.9 °F /  14.9 °C 30.12in /  1019.9hPa SSW 4mph /  6.4km/h 11mph /  17.7km/h 68% 0.00in /  0mm 290 W/m2
16:54 70.2 °F /  21.2 °C 59.3 °F /  15.2 °C 30.12in /  1019.9hPa SSW 7.3mph /  11.7km/h 17mph /  27.4km/h 68% 0.00in /  0mm 334 W/m2
16:59 70.2 °F /  21.2 °C 59.2 °F /  15.1 °C 30.12in /  1019.9hPa SSW 7.1mph /  11.4km/h 17mph /  27.4km/h 68% 0.00in /  0mm 373 W/m2
17:04 70.1 °F /  21.2 °C 59.1 °F /  15.1 °C 30.12in /  1019.9hPa SW 9.1mph /  14.6km/h 16mph /  25.7km/h 68% 0.00in /  0mm 497 W/m2
17:09 70.2 °F /  21.2 °C 59.2 °F /  15.1 °C 30.11in /  1019.5hPa SSW 10.3mph /  16.6km/h 17mph /  27.4km/h 68% 0.00in /  0mm 490 W/m2
17:14 70.3 °F /  21.3 °C 59.3 °F /  15.2 °C 30.11in /  1019.5hPa SSW 8.5mph /  13.7km/h 17mph /  27.4km/h 68% 0.00in /  0mm 612 W/m2
17:19 70.4 °F /  21.3 °C 59.1 °F /  15.1 °C 30.12in /  1019.9hPa SSW 7.8mph /  12.6km/h 14mph /  22.5km/h 67.3% 0.00in /  0mm 594 W/m2
17:24 70.6 °F /  21.4 °C 59 °F /  15 °C 30.12in /  1019.9hPa SW 7.1mph /  11.4km/h 14mph /  22.5km/h 66.7% 0.00in /  0mm 534 W/m2
17:29 70.8 °F /  21.6 °C 58.9 °F /  14.9 °C 30.11in /  1019.5hPa SSW 7mph /  11.3km/h 15mph /  24.1km/h 66% 0.00in /  0mm 566 W/m2
17:34 71.1 °F /  21.7 °C 59 °F /  15 °C 30.11in /  1019.5hPa SW 6.3mph /  10.1km/h 15mph /  24.1km/h 65.6% 0.00in /  0mm 504 W/m2
17:39 70.8 °F /  21.6 °C 58.3 °F /  14.6 °C 30.11in /  1019.5hPa SW 9mph /  14.5km/h 16mph /  25.7km/h 65% 0.00in /  0mm 489 W/m2
17:44 70.4 °F /  21.3 °C 58.5 °F /  14.7 °C 30.11in /  1019.5hPa SW 6.2mph /  10km/h 16mph /  25.7km/h 65.9% 0.00in /  0mm 248 W/m2
17:49 70.2 °F /  21.2 °C 58.4 °F /  14.7 °C 30.11in /  1019.5hPa SSW 6.2mph /  10km/h 13mph /  20.9km/h 66% 0.00in /  0mm 216 W/m2
17:54 70 °F /  21.1 °C 58.1 °F /  14.5 °C 30.11in /  1019.5hPa SSW 9.2mph /  14.8km/h 15mph /  24.1km/h 66% 0.00in /  0mm 251 W/m2
17:59 69.6 °F /  20.9 °C 58 °F /  14.4 °C 30.12in /  1019.9hPa SW 6.5mph /  10.5km/h 15mph /  24.1km/h 66.6% 0.00in /  0mm 338 W/m2
18:04 69.5 °F /  20.8 °C 57.9 °F /  14.4 °C 30.12in /  1019.9hPa SW 12mph /  19.3km/h 18mph /  29km/h 66.7% 0.00in /  0mm 338 W/m2
18:09 69.3 °F /  20.7 °C 57.9 °F /  14.4 °C 30.12in /  1019.9hPa SW 8.6mph /  13.8km/h 16mph /  25.7km/h 67% 0.00in /  0mm 311 W/m2
18:14 69.5 °F /  20.8 °C 58 °F /  14.4 °C 30.12in /  1019.9hPa SSW 6.5mph /  10.5km/h 14mph /  22.5km/h 67% 0.00in /  0mm 352 W/m2
18:19 69.6 °F /  20.9 °C 58.1 °F /  14.5 °C 30.12in /  1019.9hPa SSW 5.8mph /  9.3km/h 14mph /  22.5km/h 66.8% 0.00in /  0mm 362 W/m2
18:24 69.8 °F /  21 °C 58.3 °F /  14.6 °C 30.12in /  1019.9hPa SSW 5.6mph /  9km/h 14mph /  22.5km/h 67% 0.00in /  0mm 287 W/m2
18:29 69.8 °F /  21 °C 58.3 °F /  14.6 °C 30.12in /  1019.9hPa SSW 6.5mph /  10.5km/h 14mph /  22.5km/h 67% 0.00in /  0mm 262 W/m2
18:34 69.4 °F /  20.8 °C 58.4 °F /  14.7 °C 30.12in /  1019.9hPa SSW 7.1mph /  11.4km/h 13mph /  20.9km/h 68.1% 0.00in /  0mm 251 W/m2
18:39 69 °F /  20.6 °C 58.4 °F /  14.7 °C 30.12in /  1019.9hPa SW 8.1mph /  13km/h 14mph /  22.5km/h 69% 0.00in /  0mm 241 W/m2
18:44 68.6 °F /  20.3 °C 58.3 °F /  14.6 °C 30.12in /  1019.9hPa SSW 8.9mph /  14.3km/h 16mph /  25.7km/h 69.6% 0.00in /  0mm 239 W/m2
18:49 68.6 °F /  20.3 °C 58.4 °F /  14.7 °C 30.12in /  1019.9hPa SSW 6.5mph /  10.5km/h 12mph /  19.3km/h 70% 0.00in /  0mm 239 W/m2
18:54 68.5 °F /  20.3 °C 58.3 °F /  14.6 °C 30.12in /  1019.9hPa SSW 5.4mph /  8.7km/h 14mph /  22.5km/h 70% 0.00in /  0mm 229 W/m2
18:59 68.6 °F /  20.3 °C 58.4 °F /  14.7 °C 30.12in /  1019.9hPa SW 7.3mph /  11.7km/h 19mph /  30.6km/h 70% 0.00in /  0mm 223 W/m2
19:04 68.3 °F /  20.2 °C 58.4 °F /  14.7 °C 30.12in /  1019.9hPa SW 6.7mph /  10.8km/h 16mph /  25.7km/h 70.4% 0.00in /  0mm 214 W/m2
19:09 68.4 °F /  20.2 °C 58.6 °F /  14.8 °C 30.12in /  1019.9hPa SSW 5.6mph /  9km/h 16mph /  25.7km/h 71% 0.00in /  0mm 192 W/m2
19:14 68.3 °F /  20.2 °C 58.5 °F /  14.7 °C 30.12in /  1019.9hPa SSW 7mph /  11.3km/h 14mph /  22.5km/h 71% 0.00in /  0mm 188 W/m2
19:19 67.8 °F /  19.9 °C 58.2 °F /  14.6 °C 30.12in /  1019.9hPa SSW 5.7mph /  9.2km/h 14mph /  22.5km/h 71.1% 0.00in /  0mm 134 W/m2
19:24 67.7 °F /  19.8 °C 58.4 °F /  14.7 °C 30.12in /  1019.9hPa SW 7mph /  11.3km/h 13mph /  20.9km/h 72% 0.00in /  0mm 120 W/m2
19:29 67.6 °F /  19.8 °C 58.3 °F /  14.6 °C 30.12in /  1019.9hPa SW 3.6mph /  5.8km/h 11mph /  17.7km/h 72% 0.00in /  0mm 125 W/m2
19:34 67.6 °F /  19.8 °C 58.5 °F /  14.7 °C 30.12in /  1019.9hPa SW 4.6mph /  7.4km/h 11mph /  17.7km/h 72.5% 0.00in /  0mm 135 W/m2
19:39 67.6 °F /  19.8 °C 58.6 °F /  14.8 °C 30.12in /  1019.9hPa SSW 5.3mph /  8.5km/h 12mph /  19.3km/h 73% 0.00in /  0mm 162 W/m2
19:44 67.4 °F /  19.7 °C 58.4 °F /  14.7 °C 30.12in /  1019.9hPa SSW 5mph /  8km/h 11mph /  17.7km/h 73% 0.00in /  0mm 146 W/m2
19:49 67.3 °F /  19.6 °C 58.3 °F /  14.6 °C 30.12in /  1019.9hPa SW 6.3mph /  10.1km/h 12mph /  19.3km/h 73.1% 0.00in /  0mm 144 W/m2
19:54 67 °F /  19.4 °C 58.4 °F /  14.7 °C 30.12in /  1019.9hPa SW 7.2mph /  11.6km/h 15mph /  24.1km/h 74% 0.00in /  0mm 116 W/m2
19:59 66.7 °F /  19.3 °C 58.1 °F /  14.5 °C 30.12in /  1019.9hPa SW 6mph /  9.7km/h 14mph /  22.5km/h 74% 0.00in /  0mm 105 W/m2
20:04 66.6 °F /  19.2 °C 58.1 °F /  14.5 °C 30.12in /  1019.9hPa SW 6.6mph /  10.6km/h 12mph /  19.3km/h 74% 0.00in /  0mm 107 W/m2
20:09 66.6 °F /  19.2 °C 58.4 °F /  14.7 °C 30.12in /  1019.9hPa SW 5.6mph /  9km/h 10mph /  16.1km/h 74.5% 0.00in /  0mm 109 W/m2
20:14 66.6 °F /  19.2 °C 58.4 °F /  14.7 °C 30.12in /  1019.9hPa SW 7.4mph /  11.9km/h 13mph /  20.9km/h 74.6% 0.00in /  0mm 102 W/m2
20:19 66.2 °F /  19 °C 58.1 °F /  14.5 °C 30.12in /  1019.9hPa SW 6.3mph /  10.1km/h 13mph /  20.9km/h 75% 0.00in /  0mm 86 W/m2
20:24 66.2 °F /  19 °C 58.1 °F /  14.5 °C 30.12in /  1019.9hPa SW 5.7mph /  9.2km/h 12mph /  19.3km/h 75% 0.00in /  0mm 72 W/m2
20:29 66 °F /  18.9 °C 57.9 °F /  14.4 °C 30.12in /  1019.9hPa SW 6.1mph /  9.8km/h 13mph /  20.9km/h 75% 0.00in /  0mm 58 W/m2
20:34 65.8 °F /  18.8 °C 57.7 °F /  14.3 °C 30.13in /  1020.2hPa SW 4.3mph /  6.9km/h 11mph /  17.7km/h 75% 0.00in /  0mm 47 W/m2
20:39 65.8 °F /  18.8 °C 58 °F /  14.4 °C 30.13in /  1020.2hPa SSW 5.6mph /  9km/h 11mph /  17.7km/h 75.9% 0.00in /  0mm 39 W/m2
20:44 65.6 °F /  18.7 °C 57.8 °F /  14.3 °C 30.13in /  1020.2hPa SW 4.7mph /  7.6km/h 11mph /  17.7km/h 76% 0.00in /  0mm 28 W/m2
20:49 65.3 °F /  18.5 °C 57.6 °F /  14.2 °C 30.13in /  1020.2hPa SW 5.4mph /  8.7km/h 11mph /  17.7km/h 76.1% 0.00in /  0mm 21 W/m2
20:54 65 °F /  18.3 °C 57.6 °F /  14.2 °C 30.13in /  1020.2hPa SSW 6.9mph /  11.1km/h 12mph /  19.3km/h 77% 0.00in /  0mm 16 W/m2
20:59 64.7 °F /  18.2 °C 57.4 °F /  14.1 °C 30.13in /  1020.2hPa SW 7.9mph /  12.7km/h 14mph /  22.5km/h 77.3% 0.00in /  0mm 12 W/m2
21:04 64.4 °F /  18 °C 57.4 °F /  14.1 °C 30.13in /  1020.2hPa SSW 4.3mph /  6.9km/h 11mph /  17.7km/h 78% 0.00in /  0mm 9 W/m2
21:09 64.3 °F /  17.9 °C 57.3 °F /  14.1 °C 30.13in /  1020.2hPa SW 6.3mph /  10.1km/h 12mph /  19.3km/h 78% 0.00in /  0mm 7 W/m2
21:14 64.2 °F /  17.9 °C 57.2 °F /  14 °C 30.13in /  1020.2hPa SSW 4.1mph /  6.6km/h 9mph /  14.5km/h 78.2% 0.00in /  0mm 0 W/m2
21:19 64 °F /  17.8 °C 57.4 °F /  14.1 °C 30.13in /  1020.2hPa SW 5.4mph /  8.7km/h 12mph /  19.3km/h 79% 0.00in /  0mm 0 W/m2
21:24 63.9 °F /  17.7 °C 57.3 °F /  14.1 °C 30.13in /  1020.2hPa SSW 3.6mph /  5.8km/h 10mph /  16.1km/h 79.4% 0.00in /  0mm 0 W/m2
21:29 63.6 °F /  17.6 °C 57.3 °F /  14.1 °C 30.14in /  1020.5hPa SSW 3.2mph /  5.1km/h 9mph /  14.5km/h 80% 0.00in /  0mm 0 W/m2
21:34 63.4 °F /  17.4 °C 57.3 °F /  14.1 °C 30.14in /  1020.5hPa SSW 4.3mph /  6.9km/h 11mph /  17.7km/h 80.6% 0.00in /  0mm 0 W/m2
21:39 63.2 °F /  17.3 °C 57.3 °F /  14.1 °C 30.14in /  1020.5hPa SSW 4.9mph /  7.9km/h 9mph /  14.5km/h 81% 0.00in /  0mm 0 W/m2
21:44 63 °F /  17.2 °C 57.5 °F /  14.2 °C 30.14in /  1020.5hPa SW 6.7mph /  10.8km/h 12mph /  19.3km/h 82% 0.00in /  0mm 0 W/m2
21:49 62.9 °F /  17.2 °C 57.3 °F /  14.1 °C 30.14in /  1020.5hPa SW 5.6mph /  9km/h 12mph /  19.3km/h 82% 0.00in /  0mm 0 W/m2
21:54 62.7 °F /  17.1 °C 57.3 °F /  14.1 °C 30.14in /  1020.5hPa SW 3.7mph /  6km/h 8mph /  12.9km/h 82.7% 0.00in /  0mm 0 W/m2
21:59 62.6 °F /  17 °C 57.4 °F /  14.1 °C 30.14in /  1020.5hPa SW 2.4mph /  3.9km/h 6mph /  9.7km/h 83% 0.00in /  0mm 0 W/m2
22:04 62.4 °F /  16.9 °C 57.2 °F /  14 °C 30.14in /  1020.5hPa SW 3.5mph /  5.6km/h 9mph /  14.5km/h 83% 0.00in /  0mm 0 W/m2
22:09 62.3 °F /  16.8 °C 57.2 °F /  14 °C 30.14in /  1020.5hPa SW 5.3mph /  8.5km/h 10mph /  16.1km/h 83.3% 0.00in /  0mm 0 W/m2
22:14 62.2 °F /  16.8 °C 57.4 °F /  14.1 °C 30.14in /  1020.5hPa SW 3.3mph /  5.3km/h 8mph /  12.9km/h 84% 0.00in /  0mm 0 W/m2
22:19 62.1 °F /  16.7 °C 57.2 °F /  14 °C 30.14in /  1020.5hPa SW 4.1mph /  6.6km/h 9mph /  14.5km/h 84% 0.00in /  0mm 0 W/m2
22:24 62.1 °F /  16.7 °C 57.2 °F /  14 °C 30.14in /  1020.5hPa SW 3.4mph /  5.5km/h 9mph /  14.5km/h 84% 0.00in /  0mm 0 W/m2
22:29 62 °F /  16.7 °C 57.5 °F /  14.2 °C 30.14in /  1020.5hPa WSW 4.2mph /  6.8km/h 8mph /  12.9km/h 84.8% 0.00in /  0mm 0 W/m2
22:34 61.9 °F /  16.6 °C 57.4 °F /  14.1 °C 30.14in /  1020.5hPa WSW 3.6mph /  5.8km/h 8mph /  12.9km/h 85% 0.00in /  0mm 0 W/m2
22:39 61.7 °F /  16.5 °C 57.2 °F /  14 °C 30.14in /  1020.5hPa WSW 4.3mph /  6.9km/h 8mph /  12.9km/h 85% 0.00in /  0mm 0 W/m2
22:44 61.7 °F /  16.5 °C 57.2 °F /  14 °C 30.14in /  1020.5hPa SW 2.4mph /  3.9km/h 7mph /  11.3km/h 85% 0.00in /  0mm 0 W/m2
22:49 61.7 °F /  16.5 °C 57.2 °F /  14 °C 30.14in /  1020.5hPa WSW 2.1mph /  3.4km/h 5mph /  8km/h 85% 0.00in /  0mm 0 W/m2
22:54 61.6 °F /  16.4 °C 57.1 °F /  13.9 °C 30.14in /  1020.5hPa WSW 2mph /  3.2km/h 6mph /  9.7km/h 85% 0.00in /  0mm 0 W/m2
22:59 61.5 °F /  16.4 °C 57.3 °F /  14.1 °C 30.15in /  1020.9hPa SW 0.8mph /  1.3km/h 6mph /  9.7km/h 85.8% 0.00in /  0mm 0 W/m2
23:04 61.5 °F /  16.4 °C 57.4 °F /  14.1 °C 30.14in /  1020.5hPa West 0.5mph /  0.8km/h 3mph /  4.8km/h 86% 0.00in /  0mm 0 W/m2
23:09 61.5 °F /  16.4 °C 57.4 °F /  14.1 °C 30.14in /  1020.5hPa SW 3.5mph /  5.6km/h 10mph /  16.1km/h 86% 0.00in /  0mm 0 W/m2
23:14 61.5 °F /  16.4 °C 57.4 °F /  14.1 °C 30.14in /  1020.5hPa WSW 2.4mph /  3.9km/h 5mph /  8km/h 86% 0.00in /  0mm 0 W/m2
23:19 61.5 °F /  16.4 °C 57.4 °F /  14.1 °C 30.14in /  1020.5hPa WSW 1.5mph /  2.4km/h 6mph /  9.7km/h 86% 0.00in /  0mm 0 W/m2
23:24 61.5 °F /  16.4 °C 57.4 °F /  14.1 °C 30.14in /  1020.5hPa WSW 1mph /  1.6km/h 4mph /  6.4km/h 86% 0.00in /  0mm 0 W/m2
23:29 61.5 °F /  16.4 °C 57.5 °F /  14.2 °C 30.14in /  1020.5hPa SSW 2.4mph /  3.9km/h 8mph /  12.9km/h 86.5% 0.00in /  0mm 0 W/m2
23:34 61.5 °F /  16.4 °C 57.6 °F /  14.2 °C 30.14in /  1020.5hPa SW 1.7mph /  2.7km/h 8mph /  12.9km/h 87% 0.00in /  0mm 0 W/m2
23:39 61.5 °F /  16.4 °C 57.6 °F /  14.2 °C 30.14in /  1020.5hPa SW 1.2mph /  1.9km/h 6mph /  9.7km/h 87% 0.00in /  0mm 0 W/m2
23:44 61.4 °F /  16.3 °C 57.5 °F /  14.2 °C 30.14in /  1020.5hPa SW 0.9mph /  1.4km/h 6mph /  9.7km/h 87% 0.00in /  0mm 0 W/m2
23:49 61.4 °F /  16.3 °C 57.5 °F /  14.2 °C 30.14in /  1020.5hPa SW 0.6mph /  1km/h 3mph /  4.8km/h 87% 0.00in /  0mm 0 W/m2
23:54 61.4 °F /  16.3 °C 57.5 °F /  14.2 °C 30.14in /  1020.5hPa SW 1.5mph /  2.4km/h 5mph /  8km/h 87% 0.00in /  0mm 0 W/m2
23:59 61.5 °F /  16.4 °C 57.6 °F /  14.2 °C 30.14in /  1020.5hPa SW 0.3mph /  0.5km/h 3mph /  4.8km/h 87% 0.00in /  0mm 0 W/m2
Bath Spa Weather
Compliments of Weather Underground - 2 mb